Harlowton, MT

10:22 PM MDT on April 25, 2017 (GMT -0600)
East End | | Change Station

Elev 4219 ft 46.44 °N, 109.83 °W | Updated 2 minutes ago

Mostly Cloudy
Mostly Cloudy
36.7 °F
Feels Like 31 °F
N
6.7
Wind Variable Wind from ESE
Gusts 9.9 mph

Today
High -- | Low -- °F
--% Chance of Precip.
Yesterday
High -- | Low -- °F
Precip. -- in
Pressure 29.87 in
Visibility 10.0 miles
Clouds Mostly Cloudy 2800 ft
Overcast 3500 ft
Windchill 31 °F
Dew Point 34 °F
Humidity 91%
Rainfall 0.17 in
Snow Depth Not available.
6:14 AM 8:20 PM
Waning Crescent, 0% visible
METAR KLWT 260354Z AUTO 09009KT 10SM BKN028 OVC035 03/01 A2982 RMK AO2 SLP115 T00280006
Pressure 29.87 in
Visibility 10.0 miles
Clouds Mostly Cloudy 2800 ft
Overcast 3500 ft
Windchill 31 °F
Dew Point 34 °F
Humidity 91%
Rainfall 0.17 in
Snow Depth Not available.
6:14 AM 8:20 PM
Waning Crescent, 0% visible
METAR KLWT 260354Z AUTO 09009KT 10SM BKN028 OVC035 03/01 A2982 RMK AO2 SLP115 T00280006

Get Severe Weather Alerts

Thanks for signing up!

Be on the lookout for a verification email in your inbox.

You'll start receiving the daily forecast at 8 AM.

×

10-Day Weather Forecast

Almanac

Astronomy

Apr. 25, 2017 Rise Set
Actual Time
Civil Twilight
Nautical Twilight
Astronomical Twilight
Moon
Length of Visible Light
Length of Day
Tomorrow will be .
, % of the Moon is Illuminated

Today's Extremes

State Highs State Lows

Community

WunderPhotos

WunderBlog® & News

Nearby

Air Quality

  Air Quality AQ Index Pollutant
Not available.

Snow Depth

Station Depth Elevation

Earthquake Activity

City Distance Mag. Time & Date
Minimum magnitude displayed is 2.5.

Coastal Water Temperatures

Place Temperature

Stations

Nearby Weather Stations

Station Location Temp. Windchill Dew Point Humidity Wind Precip. Elev Updated Type
                   

Watches & Warnings

There are currently no watches in effect.